createdAt,value
2023-02-02T00:01:44.988Z,4.50
2023-02-02T00:04:26.520Z,4.60
2023-02-02T00:06:54.187Z,4.60
2023-02-02T00:09:21.553Z,4.70
2023-02-02T00:11:50.392Z,4.70
2023-02-02T00:14:18.418Z,4.80
2023-02-02T00:16:47.934Z,4.80
2023-02-02T00:19:17.911Z,4.80
2023-02-02T00:21:45.822Z,4.80
2023-02-02T00:24:14.699Z,4.80
2023-02-02T00:26:42.892Z,4.90
2023-02-02T00:29:18.852Z,4.80
2023-02-02T00:31:46.090Z,4.90
2023-02-02T00:34:14.777Z,4.80
2023-02-02T00:36:42.715Z,4.80
2023-02-02T00:39:11.425Z,4.80
2023-02-02T00:41:38.237Z,4.80
2023-02-02T00:44:23.643Z,4.80
2023-02-02T00:46:50.423Z,4.80
2023-02-02T00:49:17.277Z,4.90
2023-02-02T00:51:44.080Z,4.90
2023-02-02T00:54:10.977Z,4.90
2023-02-02T00:56:37.809Z,4.80
2023-02-02T00:59:04.750Z,4.80
2023-02-02T01:01:31.641Z,4.80
2023-02-02T01:03:59.143Z,4.80
2023-02-02T01:06:26.343Z,4.90
2023-02-02T01:08:53.793Z,4.90
2023-02-02T01:11:21.022Z,4.90
2023-02-02T01:13:47.924Z,4.90
2023-02-02T01:16:15.892Z,4.90
2023-02-02T01:18:43.390Z,4.90
2023-02-02T01:21:12.270Z,4.90
2023-02-02T01:23:39.765Z,4.80
2023-02-02T01:26:09.356Z,4.80
2023-02-02T01:28:36.511Z,4.70
2023-02-02T01:31:09.303Z,4.70
2023-02-02T01:33:36.230Z,4.70
2023-02-02T01:36:06.161Z,4.70
2023-02-02T01:38:33.687Z,4.70
2023-02-02T01:41:00.822Z,4.60
2023-02-02T01:43:44.185Z,4.60
2023-02-02T01:46:19.162Z,4.60
2023-02-02T01:48:56.807Z,4.60
2023-02-02T01:51:36.654Z,4.60
2023-02-02T01:54:06.707Z,4.50
2023-02-02T01:56:41.315Z,4.50
2023-02-02T01:59:09.631Z,4.50
2023-02-02T02:01:36.465Z,4.50
2023-02-02T02:04:03.670Z,4.50
2023-02-02T02:06:30.792Z,4.50
2023-02-02T02:09:03.699Z,4.50
2023-02-02T02:11:32.145Z,4.50
2023-02-02T02:14:20.872Z,4.50
2023-02-02T02:17:21.638Z,4.50
2023-02-02T02:20:31.651Z,4.50
2023-02-02T02:23:43.420Z,4.50
2023-02-02T02:26:35.252Z,4.40
2023-02-02T02:29:40.673Z,4.40
2023-02-02T02:32:27.283Z,4.40
2023-02-02T02:35:16.567Z,4.30
2023-02-02T02:38:01.240Z,4.40
2023-02-02T02:40:51.429Z,4.30
2023-02-02T02:43:37.933Z,4.30
2023-02-02T02:46:06.076Z,4.30
2023-02-02T02:48:33.138Z,4.30
2023-02-02T02:51:29.905Z,4.30
2023-02-02T02:53:56.956Z,4.30
2023-02-02T02:56:40.261Z,4.30
2023-02-02T02:59:24.604Z,4.40
2023-02-02T03:02:17.024Z,4.40
2023-02-02T03:04:49.021Z,4.40
2023-02-02T03:07:27.965Z,4.40
2023-02-02T03:09:57.749Z,4.30
2023-02-02T03:12:24.808Z,4.40
2023-02-02T03:14:53.564Z,4.40
2023-02-02T03:17:20.354Z,4.40
2023-02-02T03:19:47.527Z,4.40
2023-02-02T03:22:14.328Z,4.40
2023-02-02T03:24:41.100Z,4.40
2023-02-02T03:27:07.918Z,4.40
2023-02-02T03:29:34.708Z,4.30
2023-02-02T03:32:01.657Z,4.30
2023-02-02T03:34:28.867Z,4.30
2023-02-02T03:36:55.707Z,4.30
2023-02-02T03:39:22.459Z,4.30
2023-02-02T03:41:49.345Z,4.30
2023-02-02T03:44:16.158Z,4.30
2023-02-02T03:46:43.004Z,4.30
2023-02-02T03:49:10.662Z,4.30
2023-02-02T03:51:37.512Z,4.30
2023-02-02T03:54:04.861Z,4.30
2023-02-02T03:56:31.619Z,4.20
2023-02-02T03:58:58.370Z,4.30
2023-02-02T04:01:29.935Z,4.20
2023-02-02T04:03:57.828Z,4.30
2023-02-02T04:06:25.825Z,4.30
2023-02-02T04:08:53.207Z,4.30
2023-02-02T04:11:19.995Z,4.30
2023-02-02T04:13:46.841Z,4.30
2023-02-02T04:16:13.816Z,4.30
2023-02-02T04:18:40.773Z,4.30
2023-02-02T04:21:08.650Z,4.40
2023-02-02T04:23:35.825Z,4.40
2023-02-02T04:26:02.970Z,4.40
2023-02-02T04:28:29.784Z,4.40
2023-02-02T04:30:57.055Z,4.40
2023-02-02T04:33:26.389Z,4.30
2023-02-02T04:35:53.493Z,4.40
2023-02-02T04:38:20.452Z,4.30
2023-02-02T04:40:48.649Z,4.30
2023-02-02T04:43:15.424Z,4.30
2023-02-02T04:45:42.561Z,4.30
2023-02-02T04:48:09.490Z,4.30
2023-02-02T04:50:36.373Z,4.30
2023-02-02T04:53:04.185Z,4.20
2023-02-02T04:55:31.003Z,4.20
2023-02-02T04:57:57.764Z,4.20
2023-02-02T05:00:24.809Z,4.10
2023-02-02T05:02:51.619Z,4.10
2023-02-02T05:05:18.507Z,4.10
2023-02-02T05:07:45.413Z,4.10
2023-02-02T05:10:12.402Z,4.00
2023-02-02T05:12:39.230Z,4.00
2023-02-02T05:15:06.809Z,4.00
2023-02-02T05:17:33.634Z,3.90
2023-02-02T05:20:00.484Z,3.90
2023-02-02T05:22:27.500Z,3.90
2023-02-02T05:24:54.487Z,3.80
2023-02-02T05:27:21.294Z,3.90
2023-02-02T05:29:48.434Z,3.90
2023-02-02T05:32:15.706Z,3.90
2023-02-02T05:34:42.539Z,3.90
2023-02-02T05:37:09.307Z,3.90
2023-02-02T05:39:36.118Z,3.90
2023-02-02T05:42:02.967Z,3.90
2023-02-02T05:44:29.712Z,3.90
2023-02-02T05:46:56.527Z,3.80
2023-02-02T05:49:23.419Z,3.80
2023-02-02T05:51:57.140Z,3.80
2023-02-02T05:54:24.632Z,3.80
2023-02-02T05:56:53.169Z,3.70
2023-02-02T05:59:20.281Z,3.60
2023-02-02T06:01:47.551Z,3.60
2023-02-02T06:04:15.340Z,3.50
2023-02-02T06:06:42.361Z,3.50
2023-02-02T06:09:09.718Z,3.40
2023-02-02T06:11:36.655Z,3.40
2023-02-02T06:14:03.439Z,3.30
2023-02-02T06:16:30.256Z,3.30
2023-02-02T06:18:57.345Z,3.30
2023-02-02T06:21:24.831Z,3.40
2023-02-02T06:23:52.437Z,3.40
2023-02-02T06:26:19.951Z,3.40
2023-02-02T06:28:54.225Z,3.40
2023-02-02T06:31:21.782Z,3.30
2023-02-02T06:33:54.160Z,3.40
2023-02-02T06:36:21.359Z,3.40
2023-02-02T06:38:52.283Z,3.30
2023-02-02T06:41:20.408Z,3.40
2023-02-02T06:43:48.196Z,3.40
2023-02-02T06:46:16.102Z,3.40
2023-02-02T06:48:43.034Z,3.40
2023-02-02T06:51:09.845Z,3.50
2023-02-02T06:53:36.682Z,3.50
2023-02-02T06:56:06.195Z,3.50
2023-02-02T06:58:33.854Z,3.50
2023-02-02T07:01:09.458Z,3.50
2023-02-02T07:03:37.124Z,3.50
2023-02-02T07:06:18.097Z,3.50
2023-02-02T07:08:45.423Z,3.50
2023-02-02T07:11:18.960Z,3.50
2023-02-02T07:13:46.715Z,3.40
2023-02-02T07:16:14.783Z,3.40
2023-02-02T07:18:44.893Z,3.40
2023-02-02T07:21:18.620Z,3.50
2023-02-02T07:23:45.896Z,3.50
2023-02-02T07:26:14.566Z,3.50
2023-02-02T07:28:41.505Z,3.50
2023-02-02T07:31:20.817Z,3.60
2023-02-02T07:33:48.868Z,3.60
2023-02-02T07:36:19.011Z,3.60
2023-02-02T07:38:47.797Z,3.50
2023-02-02T07:41:15.788Z,3.50
2023-02-02T07:43:42.691Z,3.50
2023-02-02T07:46:12.756Z,3.50
2023-02-02T07:48:40.711Z,3.50
2023-02-02T07:51:11.448Z,3.50
2023-02-02T07:53:38.797Z,3.50
2023-02-02T07:56:26.576Z,3.50
2023-02-02T07:58:55.009Z,3.50
2023-02-02T08:01:23.235Z,3.50
2023-02-02T08:03:50.824Z,3.60
2023-02-02T08:06:22.284Z,3.70
2023-02-02T08:08:49.498Z,3.70
2023-02-02T08:11:18.789Z,3.70
2023-02-02T08:13:49.762Z,3.70
2023-02-02T08:16:17.022Z,3.80
2023-02-02T08:18:44.011Z,3.80
2023-02-02T08:21:12.072Z,3.80
2023-02-02T08:23:40.077Z,3.90
2023-02-02T08:26:09.970Z,3.90
2023-02-02T08:28:37.153Z,4.00
2023-02-02T08:31:09.540Z,4.00
2023-02-02T08:33:36.890Z,4.00
2023-02-02T08:36:04.684Z,4.10
2023-02-02T08:38:31.738Z,4.10
2023-02-02T08:41:05.785Z,4.10
2023-02-02T08:43:32.822Z,4.20
2023-02-02T08:46:05.029Z,4.20
2023-02-02T08:48:32.539Z,4.30
2023-02-02T08:50:59.817Z,4.30
2023-02-02T08:53:27.545Z,4.30
2023-02-02T08:56:01.032Z,4.30
2023-02-02T08:58:28.579Z,4.30
2023-02-02T09:00:55.888Z,4.20
2023-02-02T09:03:22.875Z,4.30
2023-02-02T09:05:49.731Z,4.30
2023-02-02T09:08:16.876Z,4.50
2023-02-02T09:10:43.714Z,4.50
2023-02-02T09:13:10.519Z,4.50
2023-02-02T09:15:38.674Z,4.50
2023-02-02T09:18:05.525Z,4.50
2023-02-02T09:20:32.471Z,4.40
2023-02-02T09:22:59.245Z,4.30
2023-02-02T09:25:29.786Z,4.30
2023-02-02T09:27:56.697Z,4.30
2023-02-02T09:30:23.512Z,4.30
2023-02-02T09:32:51.037Z,4.30
2023-02-02T09:35:17.918Z,4.30
2023-02-02T09:37:45.452Z,4.30
2023-02-02T09:40:20.989Z,4.40
2023-02-02T09:43:00.043Z,4.40
2023-02-02T09:45:51.730Z,4.30
2023-02-02T09:48:34.798Z,4.30
2023-02-02T09:51:25.858Z,4.40
2023-02-02T09:54:04.769Z,4.50
2023-02-02T09:56:57.729Z,4.30
2023-02-02T09:59:33.721Z,4.30
2023-02-02T10:02:13.745Z,4.50
2023-02-02T10:04:45.071Z,4.60
2023-02-02T10:07:19.833Z,4.60
2023-02-02T10:10:26.644Z,4.50
2023-02-02T10:12:53.340Z,4.20
2023-02-02T10:15:44.543Z,4.10
2023-02-02T10:18:29.682Z,4.40
2023-02-02T10:21:02.797Z,4.60
2023-02-02T10:23:38.858Z,4.60
2023-02-02T10:26:15.206Z,5.20
2023-02-02T10:29:12.692Z,5.60
2023-02-02T10:31:42.890Z,6.40
2023-02-02T10:34:15.900Z,6.50
2023-02-02T10:36:49.809Z,6.10
2023-02-02T10:39:38.035Z,5.70
2023-02-02T10:42:14.012Z,5.70
2023-02-02T10:44:40.714Z,5.60
2023-02-02T10:47:15.993Z,5.30
2023-02-02T10:49:42.926Z,5.20
2023-02-02T10:52:18.474Z,5.30
2023-02-02T10:55:02.200Z,6.20
2023-02-02T10:57:39.361Z,7.10
2023-02-02T11:00:37.516Z,7.30
2023-02-02T11:03:07.112Z,7.10
2023-02-02T11:05:52.594Z,7.00
2023-02-02T11:08:48.759Z,7.70
2023-02-02T11:11:29.581Z,7.70
2023-02-02T11:14:03.429Z,7.50
2023-02-02T11:16:42.015Z,7.20
2023-02-02T11:19:19.804Z,6.60
2023-02-02T11:21:54.082Z,6.50
2023-02-02T11:24:28.523Z,6.40
2023-02-02T11:27:19.635Z,6.30
2023-02-02T11:29:52.629Z,6.40
2023-02-02T11:32:25.719Z,7.20
2023-02-02T11:35:08.130Z,7.20
2023-02-02T11:37:49.740Z,6.80
2023-02-02T11:40:30.864Z,7.00
2023-02-02T11:43:19.138Z,6.80
2023-02-02T11:45:49.913Z,6.60
2023-02-02T11:48:22.918Z,6.70
2023-02-02T11:50:55.590Z,6.60
2023-02-02T11:53:27.478Z,6.30
2023-02-02T11:55:56.301Z,6.40
2023-02-02T11:58:42.669Z,6.30
2023-02-02T12:01:30.133Z,5.80
2023-02-02T12:03:59.532Z,5.80
2023-02-02T12:06:37.269Z,5.70
2023-02-02T12:09:26.491Z,5.90
2023-02-02T12:12:13.389Z,5.90
2023-02-02T12:14:55.015Z,6.00
2023-02-02T12:17:40.550Z,6.00
2023-02-02T12:20:36.993Z,6.00
2023-02-02T12:23:19.261Z,5.80
2023-02-02T12:25:59.106Z,5.90
2023-02-02T12:28:25.880Z,6.10
2023-02-02T12:31:17.648Z,6.30
2023-02-02T12:34:12.103Z,6.40
2023-02-02T12:36:47.882Z,6.30
2023-02-02T12:39:37.189Z,6.30
2023-02-02T12:42:29.005Z,5.90
2023-02-02T12:45:41.098Z,5.80
2023-02-02T12:48:43.212Z,6.00
2023-02-02T12:51:35.578Z,6.20
2023-02-02T12:54:33.435Z,5.60
2023-02-02T12:57:22.062Z,5.60
2023-02-02T13:00:13.449Z,5.80
2023-02-02T13:03:08.101Z,5.80
2023-02-02T13:05:40.747Z,6.50
2023-02-02T13:08:15.251Z,7.30
2023-02-02T13:10:47.221Z,7.50
2023-02-02T13:13:16.819Z,8.20
2023-02-02T13:15:48.102Z,8.80
2023-02-02T13:18:27.532Z,9.20
2023-02-02T13:21:16.895Z,9.50
2023-02-02T13:23:50.420Z,9.60
2023-02-02T13:26:35.003Z,8.70
2023-02-02T13:29:24.809Z,8.30
2023-02-02T13:32:14.827Z,8.50
2023-02-02T13:34:56.893Z,8.40
2023-02-02T13:37:45.014Z,7.90
2023-02-02T13:40:21.074Z,7.80
2023-02-02T13:43:26.182Z,7.60
2023-02-02T13:46:01.941Z,7.10
2023-02-02T13:49:04.512Z,6.60
2023-02-02T13:52:04.947Z,6.30
2023-02-02T13:54:50.580Z,6.20
2023-02-02T13:57:28.247Z,6.10
2023-02-02T14:00:04.790Z,6.10
2023-02-02T14:02:34.506Z,5.60
2023-02-02T14:05:04.538Z,5.50
2023-02-02T14:07:47.088Z,5.60
2023-02-02T14:10:34.498Z,5.70
2023-02-02T14:13:33.160Z,6.10
2023-02-02T14:16:05.525Z,6.00
2023-02-02T14:18:50.882Z,5.80
2023-02-02T14:21:33.516Z,5.50
2023-02-02T14:24:28.841Z,5.40
2023-02-02T14:26:58.858Z,5.10
2023-02-02T14:29:31.924Z,4.80
2023-02-02T14:32:03.153Z,4.60
2023-02-02T14:34:36.006Z,4.50
2023-02-02T14:37:14.780Z,4.40
2023-02-02T14:40:00.548Z,4.30
2023-02-02T14:43:08.981Z,4.10
2023-02-02T14:45:48.976Z,3.90
2023-02-02T14:48:23.958Z,3.90
2023-02-02T14:50:56.330Z,3.90
2023-02-02T14:53:30.640Z,3.80
2023-02-02T14:56:16.498Z,3.70
2023-02-02T14:59:00.935Z,3.70
2023-02-02T15:01:36.899Z,3.60
2023-02-02T15:04:22.398Z,3.60
2023-02-02T15:06:52.671Z,3.50
2023-02-02T15:09:28.782Z,3.40
2023-02-02T15:12:14.667Z,3.40
2023-02-02T15:15:08.152Z,3.30
2023-02-02T15:17:41.423Z,3.20
2023-02-02T15:20:27.065Z,3.10
2023-02-02T15:23:22.401Z,3.10
2023-02-02T15:25:57.870Z,3.00
2023-02-02T15:28:24.675Z,2.90
2023-02-02T15:31:07.658Z,2.90
2023-02-02T15:33:39.649Z,2.80
2023-02-02T15:36:16.115Z,2.70
2023-02-02T15:38:44.549Z,2.70
2023-02-02T15:41:21.356Z,2.60
2023-02-02T15:43:48.354Z,2.50
2023-02-02T15:46:26.306Z,2.40
2023-02-02T15:49:34.911Z,2.30
2023-02-02T15:52:15.436Z,2.20
2023-02-02T15:54:57.327Z,2.10
2023-02-02T15:57:27.397Z,2.10
2023-02-02T15:59:54.420Z,2.10
2023-02-02T16:02:29.433Z,2.00
2023-02-02T16:04:56.126Z,1.90
2023-02-02T16:07:33.878Z,1.80
2023-02-02T16:10:08.155Z,1.70
2023-02-02T16:12:35.764Z,1.70
2023-02-02T16:15:02.870Z,1.60
2023-02-02T16:17:32.588Z,1.50
2023-02-02T16:20:15.854Z,1.50
2023-02-02T16:22:46.503Z,1.40
2023-02-02T16:25:18.884Z,1.30
2023-02-02T16:27:48.382Z,1.20
2023-02-02T16:30:29.738Z,1.10
2023-02-02T16:32:56.783Z,0.90
2023-02-02T16:35:53.060Z,0.80
2023-02-02T16:38:25.116Z,0.70
2023-02-02T16:41:14.331Z,0.60
2023-02-02T16:43:43.094Z,0.50
2023-02-02T16:46:45.126Z,0.40
2023-02-02T16:49:22.544Z,0.40
2023-02-02T16:52:08.003Z,0.30
2023-02-02T16:54:34.807Z,0.30
2023-02-02T16:57:04.122Z,0.20
2023-02-02T16:59:36.136Z,0.20
2023-02-02T17:02:20.979Z,0.10
2023-02-02T17:05:28.934Z,0.10
2023-02-02T17:08:04.819Z,0.00
2023-02-02T17:10:38.071Z,0.00
2023-02-02T17:13:31.025Z,0.00
2023-02-02T17:15:58.943Z,0.00
2023-02-02T17:18:26.278Z,0.00
2023-02-02T17:21:03.752Z,-0.10
2023-02-02T17:23:32.435Z,-0.10
2023-02-02T17:25:59.848Z,-0.10
2023-02-02T17:28:27.395Z,-0.20
2023-02-02T17:30:59.443Z,-0.20
2023-02-02T17:33:27.017Z,-0.20
2023-02-02T17:35:56.264Z,-0.30
2023-02-02T17:38:24.915Z,-0.30
2023-02-02T17:40:52.852Z,-0.30
2023-02-02T17:43:19.851Z,-0.30
2023-02-02T17:45:46.722Z,-0.30
2023-02-02T17:48:14.715Z,-0.40
2023-02-02T17:50:42.870Z,-0.40
2023-02-02T17:53:33.306Z,-0.50
2023-02-02T17:56:00.551Z,-0.50
2023-02-02T17:58:27.873Z,-0.50
2023-02-02T18:00:58.991Z,-0.60
2023-02-02T18:03:34.327Z,-0.60
2023-02-02T18:06:02.023Z,-0.60
2023-02-02T18:08:30.682Z,-0.60
2023-02-02T18:10:59.715Z,-0.60
2023-02-02T18:13:26.875Z,-0.60
2023-02-02T18:15:56.255Z,-0.60
2023-02-02T18:18:23.239Z,-0.60
2023-02-02T18:20:51.425Z,-0.60
2023-02-02T18:23:19.629Z,-0.60
2023-02-02T18:25:46.735Z,-0.60
2023-02-02T18:28:17.272Z,-0.70
2023-02-02T18:30:45.644Z,-0.60
2023-02-02T18:33:13.766Z,-0.70
2023-02-02T18:35:47.433Z,-0.70
2023-02-02T18:38:15.037Z,-0.80
2023-02-02T18:40:42.601Z,-0.90
2023-02-02T18:43:11.362Z,-0.90
2023-02-02T18:45:38.158Z,-1.00
2023-02-02T18:48:05.079Z,-1.00
2023-02-02T18:50:31.961Z,-1.00
2023-02-02T18:53:01.349Z,-1.00
2023-02-02T18:55:28.520Z,-1.10
2023-02-02T18:57:55.566Z,-1.00
2023-02-02T19:00:22.562Z,-1.10
2023-02-02T19:02:49.557Z,-1.10
2023-02-02T19:05:34.934Z,-1.10
2023-02-02T19:08:03.858Z,-1.00
2023-02-02T19:10:32.743Z,-1.10
2023-02-02T19:13:06.504Z,-1.10
2023-02-02T19:15:37.076Z,-1.20
2023-02-02T19:18:13.731Z,-1.20
2023-02-02T19:20:40.930Z,-1.20
2023-02-02T19:23:13.541Z,-1.20
2023-02-02T19:25:42.287Z,-1.20
2023-02-02T19:28:31.184Z,-1.20
2023-02-02T19:31:00.861Z,-1.20
2023-02-02T19:33:41.664Z,-1.20
2023-02-02T19:36:15.402Z,-1.20
2023-02-02T19:38:42.777Z,-1.20
2023-02-02T19:41:21.439Z,-1.20
2023-02-02T19:43:49.785Z,-1.20
2023-02-02T19:46:22.974Z,-1.20
2023-02-02T19:48:53.867Z,-1.20
2023-02-02T19:51:39.749Z,-1.20
2023-02-02T19:54:41.062Z,-1.20
2023-02-02T19:57:31.175Z,-1.20
2023-02-02T20:00:00.325Z,-1.10
2023-02-02T20:02:51.272Z,-1.10
2023-02-02T20:05:27.588Z,-1.10
2023-02-02T20:08:02.095Z,-1.10
2023-02-02T20:10:47.571Z,-1.10
2023-02-02T20:13:26.202Z,-1.10
2023-02-02T20:16:03.570Z,-1.20
2023-02-02T20:18:46.457Z,-1.10
2023-02-02T20:21:42.187Z,-1.10
2023-02-02T20:24:19.570Z,-1.10
2023-02-02T20:26:46.612Z,-1.10
2023-02-02T20:29:28.305Z,-1.10
2023-02-02T20:31:58.562Z,-1.00
2023-02-02T20:34:35.668Z,-1.00
2023-02-02T20:37:15.477Z,-1.00
2023-02-02T20:39:47.796Z,-0.90
2023-02-02T20:42:15.338Z,-0.90
2023-02-02T20:44:42.520Z,-0.80
2023-02-02T20:47:09.568Z,-0.80
2023-02-02T20:49:38.728Z,-0.70
2023-02-02T20:52:10.957Z,-0.70
2023-02-02T20:54:39.327Z,-0.60
2023-02-02T20:57:07.008Z,-0.50
2023-02-02T20:59:33.918Z,-0.40
2023-02-02T21:02:01.303Z,-0.40
2023-02-02T21:04:28.224Z,-0.40
2023-02-02T21:06:55.738Z,-0.30
2023-02-02T21:09:22.647Z,-0.30
2023-02-02T21:11:49.642Z,-0.20
2023-02-02T21:14:16.943Z,-0.20
2023-02-02T21:16:43.737Z,-0.10
2023-02-02T21:19:11.016Z,0.00
2023-02-02T21:21:38.038Z,0.00
2023-02-02T21:24:05.863Z,0.00
2023-02-02T21:26:32.639Z,0.10
2023-02-02T21:28:59.571Z,0.10
2023-02-02T21:31:27.231Z,0.20
2023-02-02T21:33:54.306Z,0.20
2023-02-02T21:36:29.987Z,0.30
2023-02-02T21:39:16.087Z,0.30
2023-02-02T21:41:43.030Z,0.40
2023-02-02T21:44:22.411Z,0.50
2023-02-02T21:46:51.430Z,0.50
2023-02-02T21:49:24.966Z,0.50
2023-02-02T21:51:55.948Z,0.50
2023-02-02T21:54:27.126Z,0.50
2023-02-02T21:56:55.225Z,0.60
2023-02-02T21:59:24.699Z,0.60
2023-02-02T22:01:52.560Z,0.60
2023-02-02T22:04:22.586Z,0.60
2023-02-02T22:06:53.276Z,0.70
2023-02-02T22:09:25.186Z,0.70
2023-02-02T22:12:01.510Z,0.70
2023-02-02T22:14:38.351Z,0.70
2023-02-02T22:17:26.064Z,0.80
2023-02-02T22:20:14.496Z,0.80
2023-02-02T22:22:48.079Z,0.90
2023-02-02T22:25:17.842Z,0.90
2023-02-02T22:27:51.496Z,1.00
2023-02-02T22:30:18.282Z,1.10
2023-02-02T22:32:45.087Z,1.10
2023-02-02T22:35:11.927Z,1.10
2023-02-02T22:37:39.384Z,1.10
2023-02-02T22:40:06.731Z,1.20
2023-02-02T22:42:34.064Z,1.20
2023-02-02T22:45:00.806Z,1.20
2023-02-02T22:47:27.886Z,1.20
2023-02-02T22:49:54.772Z,1.20
2023-02-02T22:52:21.667Z,1.30
2023-02-02T22:54:49.080Z,1.30
2023-02-02T22:57:15.877Z,1.30
2023-02-02T22:59:42.771Z,1.40
2023-02-02T23:02:09.611Z,1.40
2023-02-02T23:04:37.305Z,1.40
2023-02-02T23:07:04.156Z,1.50
2023-02-02T23:09:30.926Z,1.50
2023-02-02T23:11:57.709Z,1.60
2023-02-02T23:14:24.564Z,1.60
2023-02-02T23:16:51.431Z,1.60
2023-02-02T23:19:18.623Z,1.60
2023-02-02T23:21:45.345Z,1.60
2023-02-02T23:24:12.301Z,1.60
2023-02-02T23:26:42.201Z,1.60
2023-02-02T23:29:09.090Z,1.60
2023-02-02T23:31:35.959Z,1.60
2023-02-02T23:34:02.758Z,1.60
2023-02-02T23:36:29.555Z,1.60
2023-02-02T23:38:56.267Z,1.60
2023-02-02T23:41:23.139Z,1.60
2023-02-02T23:43:50.319Z,1.60
2023-02-02T23:46:18.141Z,1.70
2023-02-02T23:48:45.696Z,1.70
2023-02-02T23:51:13.160Z,1.70
2023-02-02T23:53:40.914Z,1.60
2023-02-02T23:56:07.744Z,1.70
2023-02-02T23:58:34.547Z,1.60
